createdAt,value
2023-02-18T00:01:24.235Z,0.30
2023-02-18T00:11:26.055Z,0.30
2023-02-18T00:21:27.986Z,0.40
2023-02-18T00:31:31.871Z,0.30
2023-02-18T00:41:36.225Z,0.40
2023-02-18T00:51:37.829Z,0.22
2023-02-18T01:01:39.416Z,0.40
2023-02-18T01:11:42.704Z,0.30
2023-02-18T01:21:44.226Z,0.40
2023-02-18T01:31:45.887Z,0.32
2023-02-18T01:41:47.600Z,0.30
2023-02-18T01:51:53.289Z,0.47
2023-02-18T02:01:55.562Z,0.30
2023-02-18T02:12:28.455Z,0.40
2023-02-18T02:22:38.019Z,0.33
2023-02-18T02:32:59.984Z,0.20
2023-02-18T02:43:21.352Z,0.30
2023-02-18T02:53:26.288Z,0.30
2023-02-18T03:03:35.033Z,0.30
2023-02-18T03:13:51.096Z,0.40
2023-02-18T03:24:03.683Z,0.40
2023-02-18T03:34:10.845Z,0.20
2023-02-18T03:44:13.304Z,0.20
2023-02-18T03:54:15.192Z,0.40
2023-02-18T04:04:17.584Z,0.30
2023-02-18T04:14:19.156Z,0.50
2023-02-18T04:24:20.677Z,0.30
2023-02-18T04:34:22.206Z,0.50
2023-02-18T04:44:23.758Z,0.30
2023-02-18T04:54:25.410Z,0.30
2023-02-18T05:04:27.308Z,0.40
2023-02-18T05:14:28.840Z,0.30
2023-02-18T05:24:30.362Z,0.35
2023-02-18T05:34:31.842Z,0.30
2023-02-18T05:44:33.980Z,0.40
2023-02-18T05:54:36.182Z,0.25
2023-02-18T06:04:37.938Z,0.30
2023-02-18T06:14:42.247Z,0.30
2023-02-18T06:24:43.939Z,0.30
2023-02-18T06:34:45.464Z,0.40
2023-02-18T06:44:47.037Z,0.30
2023-02-18T06:54:48.565Z,0.38
2023-02-18T07:04:50.151Z,0.40
2023-02-18T07:14:51.703Z,0.40
2023-02-18T07:24:54.057Z,0.50
2023-02-18T07:34:55.867Z,0.40
2023-02-18T07:44:57.397Z,0.40
2023-02-18T07:54:59.057Z,0.57
2023-02-18T08:05:00.597Z,0.40
2023-02-18T08:15:03.947Z,0.40
2023-02-18T08:25:05.905Z,0.50
2023-02-18T08:35:08.023Z,0.60
2023-02-18T08:45:09.562Z,0.60
2023-02-18T08:55:11.140Z,0.52
2023-02-18T09:05:12.664Z,0.50
2023-02-18T09:15:14.185Z,0.40
2023-02-18T09:25:15.859Z,0.50
2023-02-18T09:35:17.441Z,0.40
2023-02-18T09:45:19.140Z,0.38
2023-02-18T09:55:20.793Z,0.80
2023-02-18T10:05:23.587Z,0.50
2023-02-18T10:15:31.392Z,0.40
2023-02-18T10:25:34.396Z,0.40
2023-02-18T10:35:43.903Z,0.55
2023-02-18T10:45:57.073Z,0.82
2023-02-18T10:55:59.086Z,0.75
2023-02-18T11:06:00.933Z,0.57
2023-02-18T11:16:05.756Z,0.60
2023-02-18T11:26:11.213Z,0.55
2023-02-18T11:36:24.077Z,0.65
2023-02-18T11:46:27.492Z,0.60
2023-02-18T11:56:32.758Z,0.88
2023-02-18T12:06:38.943Z,0.60
2023-02-18T12:17:02.850Z,1.13
2023-02-18T12:27:16.362Z,1.00
2023-02-18T12:37:30.093Z,0.90
2023-02-18T12:48:03.307Z,0.65
2023-02-18T12:58:10.929Z,1.10
2023-02-18T13:08:28.033Z,0.70
2023-02-18T13:18:36.374Z,1.00
2023-02-18T13:28:43.591Z,0.93
2023-02-18T13:39:05.500Z,0.60
2023-02-18T13:49:12.964Z,0.77
2023-02-18T13:59:25.636Z,0.77
2023-02-18T14:09:39.891Z,0.77
2023-02-18T14:19:41.410Z,1.00
2023-02-18T14:29:42.947Z,0.70
2023-02-18T14:40:18.099Z,0.60
2023-02-18T14:50:21.027Z,0.53
2023-02-18T15:00:32.334Z,0.70
2023-02-18T15:10:46.099Z,0.70
2023-02-18T15:20:47.792Z,0.73
2023-02-18T15:30:49.381Z,0.50
2023-02-18T15:40:52.744Z,0.60
2023-02-18T15:50:58.541Z,0.65
2023-02-18T16:01:08.496Z,0.65
2023-02-18T16:11:12.627Z,0.52
2023-02-18T16:21:20.117Z,0.95
2023-02-18T16:31:22.555Z,0.70
2023-02-18T16:41:24.647Z,0.80
2023-02-18T16:51:30.866Z,0.60
2023-02-18T17:01:42.519Z,1.08
2023-02-18T17:11:45.243Z,0.82
2023-02-18T17:21:48.743Z,0.50
2023-02-18T17:31:55.139Z,0.80
2023-02-18T17:41:56.659Z,0.50
2023-02-18T17:51:58.245Z,0.65
2023-02-18T18:01:59.803Z,0.50
2023-02-18T18:12:01.299Z,0.40
2023-02-18T18:22:02.759Z,0.47
2023-02-18T18:32:04.582Z,0.57
2023-02-18T18:42:06.708Z,0.50
2023-02-18T18:52:12.651Z,0.55
2023-02-18T19:02:16.062Z,0.50
2023-02-18T19:12:17.547Z,0.70
2023-02-18T19:22:19.049Z,0.55
2023-02-18T19:32:20.537Z,0.40
2023-02-18T19:42:22.022Z,0.40
2023-02-18T19:52:23.565Z,0.30
2023-02-18T20:02:26.008Z,0.50
2023-02-18T20:12:27.532Z,0.43
2023-02-18T20:22:29.107Z,0.47
2023-02-18T20:32:30.757Z,0.40
2023-02-18T20:42:32.317Z,0.32
2023-02-18T20:52:34.872Z,0.45
2023-02-18T21:02:36.515Z,0.47
2023-02-18T21:12:38.000Z,0.40
2023-02-18T21:22:39.476Z,0.30
2023-02-18T21:32:41.032Z,0.50
2023-02-18T21:42:42.541Z,0.50
2023-02-18T21:52:44.193Z,0.30
2023-02-18T22:02:45.729Z,0.28
2023-02-18T22:12:47.217Z,0.40
2023-02-18T22:22:48.699Z,0.47
2023-02-18T22:32:50.201Z,0.30
2023-02-18T22:42:51.690Z,0.40
2023-02-18T22:52:53.692Z,0.20
2023-02-18T23:02:55.184Z,0.30
2023-02-18T23:12:56.656Z,0.30
2023-02-18T23:22:58.985Z,0.30
2023-02-18T23:33:00.469Z,0.32
2023-02-18T23:43:01.942Z,0.28
2023-02-18T23:53:03.477Z,0.30
